sensor_id;sensor_type;location;lat;lon;timestamp;temperature;humidity
41720;DHT22;27405;53.316;-6.294;2023-02-10T00:02:24;6.00;99.90
41720;DHT22;27405;53.316;-6.294;2023-02-10T00:04:50;6.00;99.90
41720;DHT22;27405;53.316;-6.294;2023-02-10T00:07:17;5.90;99.90
41720;DHT22;27405;53.316;-6.294;2023-02-10T00:09:43;5.90;99.90
41720;DHT22;27405;53.316;-6.294;2023-02-10T00:12:09;5.90;99.90
41720;DHT22;27405;53.316;-6.294;2023-02-10T00:14:35;5.90;99.90
41720;DHT22;27405;53.316;-6.294;2023-02-10T00:17:01;6.00;99.90
41720;DHT22;27405;53.316;-6.294;2023-02-10T00:19:28;6.00;99.90
41720;DHT22;27405;53.316;-6.294;2023-02-10T00:21:54;6.00;99.90
41720;DHT22;27405;53.316;-6.294;2023-02-10T00:24:21;6.00;99.90
41720;DHT22;27405;53.316;-6.294;2023-02-10T00:26:47;6.10;99.90
41720;DHT22;27405;53.316;-6.294;2023-02-10T00:29:13;6.10;99.90
41720;DHT22;27405;53.316;-6.294;2023-02-10T00:31:39;6.10;99.90
41720;DHT22;27405;53.316;-6.294;2023-02-10T00:34:04;6.10;99.90
41720;DHT22;27405;53.316;-6.294;2023-02-10T00:36:30;6.10;99.90
41720;DHT22;27405;53.316;-6.294;2023-02-10T00:38:56;6.10;99.90
41720;DHT22;27405;53.316;-6.294;2023-02-10T00:41:23;6.10;99.90
41720;DHT22;27405;53.316;-6.294;2023-02-10T00:43:49;6.10;99.90
41720;DHT22;27405;53.316;-6.294;2023-02-10T00:46:17;6.10;99.90
41720;DHT22;27405;53.316;-6.294;2023-02-10T00:48:43;6.10;99.90
41720;DHT22;27405;53.316;-6.294;2023-02-10T00:51:09;6.10;99.90
41720;DHT22;27405;53.316;-6.294;2023-02-10T00:53:35;6.20;99.90
41720;DHT22;27405;53.316;-6.294;2023-02-10T00:56:01;6.20;99.90
41720;DHT22;27405;53.316;-6.294;2023-02-10T00:58:26;6.20;99.90
41720;DHT22;27405;53.316;-6.294;2023-02-10T01:00:53;6.20;99.90
41720;DHT22;27405;53.316;-6.294;2023-02-10T01:03:19;6.20;99.90
41720;DHT22;27405;53.316;-6.294;2023-02-10T01:05:45;6.20;99.90
41720;DHT22;27405;53.316;-6.294;2023-02-10T01:08:11;6.20;99.90
41720;DHT22;27405;53.316;-6.294;2023-02-10T01:10:38;6.20;99.90
41720;DHT22;27405;53.316;-6.294;2023-02-10T01:13:06;6.20;99.90
41720;DHT22;27405;53.316;-6.294;2023-02-10T01:15:32;6.30;99.90
41720;DHT22;27405;53.316;-6.294;2023-02-10T01:17:58;6.30;99.90
41720;DHT22;27405;53.316;-6.294;2023-02-10T01:20:23;6.30;99.90
41720;DHT22;27405;53.316;-6.294;2023-02-10T01:22:49;6.30;99.90
41720;DHT22;27405;53.316;-6.294;2023-02-10T01:25:15;6.30;99.90
41720;DHT22;27405;53.316;-6.294;2023-02-10T01:27:41;6.30;99.90
41720;DHT22;27405;53.316;-6.294;2023-02-10T01:30:07;6.30;99.90
41720;DHT22;27405;53.316;-6.294;2023-02-10T01:32:32;6.30;99.90
41720;DHT22;27405;53.316;-6.294;2023-02-10T01:34:58;6.40;99.90
41720;DHT22;27405;53.316;-6.294;2023-02-10T01:37:24;6.40;99.90
41720;DHT22;27405;53.316;-6.294;2023-02-10T01:39:49;6.40;99.90
41720;DHT22;27405;53.316;-6.294;2023-02-10T01:42:16;6.40;99.90
41720;DHT22;27405;53.316;-6.294;2023-02-10T01:47:08;6.40;99.90
41720;DHT22;27405;53.316;-6.294;2023-02-10T01:49:40;6.40;99.90
41720;DHT22;27405;53.316;-6.294;2023-02-10T01:52:11;6.40;99.90
41720;DHT22;27405;53.316;-6.294;2023-02-10T01:54:47;6.50;99.90
41720;DHT22;27405;53.316;-6.294;2023-02-10T01:57:15;6.50;99.90
41720;DHT22;27405;53.316;-6.294;2023-02-10T01:59:42;6.50;99.90
41720;DHT22;27405;53.316;-6.294;2023-02-10T02:02:09;6.60;99.90
41720;DHT22;27405;53.316;-6.294;2023-02-10T02:04:44;6.60;99.90
41720;DHT22;27405;53.316;-6.294;2023-02-10T02:07:11;6.60;99.90
41720;DHT22;27405;53.316;-6.294;2023-02-10T02:09:37;6.60;99.90
41720;DHT22;27405;53.316;-6.294;2023-02-10T02:12:09;6.70;99.90
41720;DHT22;27405;53.316;-6.294;2023-02-10T02:17:24;6.70;99.90
41720;DHT22;27405;53.316;-6.294;2023-02-10T02:28:53;6.80;99.90
41720;DHT22;27405;53.316;-6.294;2023-02-10T02:36:52;6.80;99.90
41720;DHT22;27405;53.316;-6.294;2023-02-10T02:39:21;6.80;99.90
41720;DHT22;27405;53.316;-6.294;2023-02-10T02:41:47;6.80;99.90
41720;DHT22;27405;53.316;-6.294;2023-02-10T02:44:12;6.80;99.90
41720;DHT22;27405;53.316;-6.294;2023-02-10T02:47:04;6.80;99.90
41720;DHT22;27405;53.316;-6.294;2023-02-10T02:49:43;6.80;99.90
41720;DHT22;27405;53.316;-6.294;2023-02-10T02:52:16;6.80;99.90
41720;DHT22;27405;53.316;-6.294;2023-02-10T02:55:00;6.80;99.90
41720;DHT22;27405;53.316;-6.294;2023-02-10T02:57:45;6.80;99.90
41720;DHT22;27405;53.316;-6.294;2023-02-10T03:00:21;6.90;99.90
41720;DHT22;27405;53.316;-6.294;2023-02-10T03:02:49;6.90;99.90
41720;DHT22;27405;53.316;-6.294;2023-02-10T03:05:23;6.90;99.90
41720;DHT22;27405;53.316;-6.294;2023-02-10T03:07:49;6.90;99.90
41720;DHT22;27405;53.316;-6.294;2023-02-10T03:10:16;7.00;99.90
41720;DHT22;27405;53.316;-6.294;2023-02-10T03:12:42;7.00;99.90
41720;DHT22;27405;53.316;-6.294;2023-02-10T03:15:08;7.00;99.90
41720;DHT22;27405;53.316;-6.294;2023-02-10T03:17:35;7.00;99.90
41720;DHT22;27405;53.316;-6.294;2023-02-10T03:20:00;7.10;99.90
41720;DHT22;27405;53.316;-6.294;2023-02-10T03:22:26;7.10;99.90
41720;DHT22;27405;53.316;-6.294;2023-02-10T03:24:52;7.10;99.90
41720;DHT22;27405;53.316;-6.294;2023-02-10T03:27:17;7.10;99.90
41720;DHT22;27405;53.316;-6.294;2023-02-10T03:29:43;7.10;99.90
41720;DHT22;27405;53.316;-6.294;2023-02-10T03:32:09;7.20;99.90
41720;DHT22;27405;53.316;-6.294;2023-02-10T03:34:34;7.20;99.90
41720;DHT22;27405;53.316;-6.294;2023-02-10T03:37:00;7.20;99.90
41720;DHT22;27405;53.316;-6.294;2023-02-10T03:39:26;7.20;99.90
41720;DHT22;27405;53.316;-6.294;2023-02-10T03:41:52;7.20;99.90
41720;DHT22;27405;53.316;-6.294;2023-02-10T03:44:18;7.30;99.90
41720;DHT22;27405;53.316;-6.294;2023-02-10T03:46:44;7.30;99.90
41720;DHT22;27405;53.316;-6.294;2023-02-10T03:49:10;7.30;99.90
41720;DHT22;27405;53.316;-6.294;2023-02-10T03:51:35;7.30;99.90
41720;DHT22;27405;53.316;-6.294;2023-02-10T03:54:01;7.30;99.90
41720;DHT22;27405;53.316;-6.294;2023-02-10T03:56:27;7.30;99.90
41720;DHT22;27405;53.316;-6.294;2023-02-10T03:58:52;7.40;99.90
41720;DHT22;27405;53.316;-6.294;2023-02-10T04:01:18;7.40;99.90
41720;DHT22;27405;53.316;-6.294;2023-02-10T04:03:44;7.40;99.90
41720;DHT22;27405;53.316;-6.294;2023-02-10T04:06:10;7.50;99.90
41720;DHT22;27405;53.316;-6.294;2023-02-10T04:08:37;7.50;99.90
41720;DHT22;27405;53.316;-6.294;2023-02-10T04:11:03;7.50;99.90
41720;DHT22;27405;53.316;-6.294;2023-02-10T04:13:29;7.60;99.90
41720;DHT22;27405;53.316;-6.294;2023-02-10T04:16:06;7.60;99.90
41720;DHT22;27405;53.316;-6.294;2023-02-10T04:18:32;7.60;99.90
41720;DHT22;27405;53.316;-6.294;2023-02-10T04:21:03;7.70;99.90
41720;DHT22;27405;53.316;-6.294;2023-02-10T04:23:29;7.70;99.90
41720;DHT22;27405;53.316;-6.294;2023-02-10T04:25:55;7.70;99.90
41720;DHT22;27405;53.316;-6.294;2023-02-10T04:28:21;7.70;99.90
41720;DHT22;27405;53.316;-6.294;2023-02-10T04:30:51;7.80;99.90
41720;DHT22;27405;53.316;-6.294;2023-02-10T04:33:16;7.80;99.90
41720;DHT22;27405;53.316;-6.294;2023-02-10T04:35:42;7.80;99.90
41720;DHT22;27405;53.316;-6.294;2023-02-10T04:38:09;7.90;99.90
41720;DHT22;27405;53.316;-6.294;2023-02-10T04:40:35;7.90;99.90
41720;DHT22;27405;53.316;-6.294;2023-02-10T04:43:01;7.90;99.90
41720;DHT22;27405;53.316;-6.294;2023-02-10T04:45:27;7.90;99.90
41720;DHT22;27405;53.316;-6.294;2023-02-10T04:47:52;8.00;99.90
41720;DHT22;27405;53.316;-6.294;2023-02-10T04:50:18;8.00;99.90
41720;DHT22;27405;53.316;-6.294;2023-02-10T04:52:44;8.00;99.90
41720;DHT22;27405;53.316;-6.294;2023-02-10T04:55:09;7.90;99.90
41720;DHT22;27405;53.316;-6.294;2023-02-10T04:57:35;7.90;99.90
41720;DHT22;27405;53.316;-6.294;2023-02-10T05:00:01;7.90;99.90
41720;DHT22;27405;53.316;-6.294;2023-02-10T05:02:26;8.00;99.90
41720;DHT22;27405;53.316;-6.294;2023-02-10T05:04:52;8.00;99.90
41720;DHT22;27405;53.316;-6.294;2023-02-10T05:07:17;8.00;99.90
41720;DHT22;27405;53.316;-6.294;2023-02-10T05:09:43;8.00;99.90
41720;DHT22;27405;53.316;-6.294;2023-02-10T05:12:09;8.10;99.90
41720;DHT22;27405;53.316;-6.294;2023-02-10T05:14:35;8.10;99.90
41720;DHT22;27405;53.316;-6.294;2023-02-10T05:17:00;8.10;99.90
41720;DHT22;27405;53.316;-6.294;2023-02-10T05:19:26;8.10;99.90
41720;DHT22;27405;53.316;-6.294;2023-02-10T05:21:52;8.20;99.90
41720;DHT22;27405;53.316;-6.294;2023-02-10T05:24:17;8.20;99.90
41720;DHT22;27405;53.316;-6.294;2023-02-10T05:26:43;8.30;99.90
41720;DHT22;27405;53.316;-6.294;2023-02-10T05:29:09;8.30;99.90
41720;DHT22;27405;53.316;-6.294;2023-02-10T05:31:34;8.30;99.90
41720;DHT22;27405;53.316;-6.294;2023-02-10T05:34:00;8.40;99.90
41720;DHT22;27405;53.316;-6.294;2023-02-10T05:36:26;8.40;99.90
41720;DHT22;27405;53.316;-6.294;2023-02-10T05:38:51;8.50;99.90
41720;DHT22;27405;53.316;-6.294;2023-02-10T05:41:35;8.50;99.90
41720;DHT22;27405;53.316;-6.294;2023-02-10T05:44:01;8.40;99.90
41720;DHT22;27405;53.316;-6.294;2023-02-10T05:46:27;8.50;99.90
41720;DHT22;27405;53.316;-6.294;2023-02-10T05:48:52;8.60;99.90
41720;DHT22;27405;53.316;-6.294;2023-02-10T05:51:18;8.60;99.90
41720;DHT22;27405;53.316;-6.294;2023-02-10T05:53:44;8.70;99.90
41720;DHT22;27405;53.316;-6.294;2023-02-10T05:56:09;8.80;99.90
41720;DHT22;27405;53.316;-6.294;2023-02-10T05:58:35;8.90;99.90
41720;DHT22;27405;53.316;-6.294;2023-02-10T06:01:04;9.00;99.90
41720;DHT22;27405;53.316;-6.294;2023-02-10T06:03:30;9.00;99.90
41720;DHT22;27405;53.316;-6.294;2023-02-10T06:05:56;9.00;99.90
41720;DHT22;27405;53.316;-6.294;2023-02-10T06:08:21;9.00;99.90
41720;DHT22;27405;53.316;-6.294;2023-02-10T06:10:47;9.00;99.90
41720;DHT22;27405;53.316;-6.294;2023-02-10T06:13:12;9.00;99.90
41720;DHT22;27405;53.316;-6.294;2023-02-10T06:15:38;9.10;99.90
41720;DHT22;27405;53.316;-6.294;2023-02-10T06:18:04;9.10;99.90
41720;DHT22;27405;53.316;-6.294;2023-02-10T06:20:29;9.10;99.90
41720;DHT22;27405;53.316;-6.294;2023-02-10T06:22:55;9.10;99.90
41720;DHT22;27405;53.316;-6.294;2023-02-10T06:25:21;9.20;99.90
41720;DHT22;27405;53.316;-6.294;2023-02-10T06:27:46;9.20;99.90
41720;DHT22;27405;53.316;-6.294;2023-02-10T06:30:12;9.20;99.90
41720;DHT22;27405;53.316;-6.294;2023-02-10T06:32:38;9.20;99.90
41720;DHT22;27405;53.316;-6.294;2023-02-10T06:35:04;9.30;99.90
41720;DHT22;27405;53.316;-6.294;2023-02-10T06:37:29;9.30;99.90
41720;DHT22;27405;53.316;-6.294;2023-02-10T06:39:55;9.30;99.90
41720;DHT22;27405;53.316;-6.294;2023-02-10T06:42:21;9.30;99.90
41720;DHT22;27405;53.316;-6.294;2023-02-10T06:44:47;9.20;99.90
41720;DHT22;27405;53.316;-6.294;2023-02-10T06:47:13;9.30;99.90
41720;DHT22;27405;53.316;-6.294;2023-02-10T06:49:38;9.20;99.90
41720;DHT22;27405;53.316;-6.294;2023-02-10T06:52:04;9.20;99.90
41720;DHT22;27405;53.316;-6.294;2023-02-10T06:54:30;9.20;99.90
41720;DHT22;27405;53.316;-6.294;2023-02-10T06:56:55;9.20;99.90
41720;DHT22;27405;53.316;-6.294;2023-02-10T06:59:21;9.20;99.90
41720;DHT22;27405;53.316;-6.294;2023-02-10T07:01:47;9.20;99.90
41720;DHT22;27405;53.316;-6.294;2023-02-10T07:04:13;9.20;99.90
41720;DHT22;27405;53.316;-6.294;2023-02-10T07:06:39;9.30;99.90
41720;DHT22;27405;53.316;-6.294;2023-02-10T07:09:05;9.30;99.90
41720;DHT22;27405;53.316;-6.294;2023-02-10T07:11:32;9.30;99.90
41720;DHT22;27405;53.316;-6.294;2023-02-10T07:13:58;9.30;99.90
41720;DHT22;27405;53.316;-6.294;2023-02-10T07:16:24;9.30;99.90
41720;DHT22;27405;53.316;-6.294;2023-02-10T07:18:50;9.30;99.90
41720;DHT22;27405;53.316;-6.294;2023-02-10T07:21:15;9.30;99.90
41720;DHT22;27405;53.316;-6.294;2023-02-10T07:23:41;9.30;99.90
41720;DHT22;27405;53.316;-6.294;2023-02-10T07:26:07;9.20;99.90
41720;DHT22;27405;53.316;-6.294;2023-02-10T07:28:33;9.20;99.90
41720;DHT22;27405;53.316;-6.294;2023-02-10T07:30:59;9.20;99.90
41720;DHT22;27405;53.316;-6.294;2023-02-10T07:33:25;9.20;99.90
41720;DHT22;27405;53.316;-6.294;2023-02-10T07:35:51;9.10;99.90
41720;DHT22;27405;53.316;-6.294;2023-02-10T07:38:17;9.20;99.90
41720;DHT22;27405;53.316;-6.294;2023-02-10T07:40:42;9.20;99.90
41720;DHT22;27405;53.316;-6.294;2023-02-10T07:43:08;9.10;99.90
41720;DHT22;27405;53.316;-6.294;2023-02-10T07:45:34;9.10;99.90
41720;DHT22;27405;53.316;-6.294;2023-02-10T07:47:59;9.20;99.90
41720;DHT22;27405;53.316;-6.294;2023-02-10T07:50:25;9.20;99.90
41720;DHT22;27405;53.316;-6.294;2023-02-10T07:52:51;9.20;99.90
41720;DHT22;27405;53.316;-6.294;2023-02-10T07:55:18;9.20;99.90
41720;DHT22;27405;53.316;-6.294;2023-02-10T07:57:44;9.20;99.90
41720;DHT22;27405;53.316;-6.294;2023-02-10T08:00:10;9.20;99.90
41720;DHT22;27405;53.316;-6.294;2023-02-10T08:02:37;9.20;99.90
41720;DHT22;27405;53.316;-6.294;2023-02-10T08:05:03;9.20;99.90
41720;DHT22;27405;53.316;-6.294;2023-02-10T08:07:29;9.20;99.90
41720;DHT22;27405;53.316;-6.294;2023-02-10T08:09:54;9.20;99.90
41720;DHT22;27405;53.316;-6.294;2023-02-10T08:12:20;9.20;99.90
41720;DHT22;27405;53.316;-6.294;2023-02-10T08:14:46;9.20;99.90
41720;DHT22;27405;53.316;-6.294;2023-02-10T08:17:12;9.20;99.90
41720;DHT22;27405;53.316;-6.294;2023-02-10T08:19:37;9.20;99.90
41720;DHT22;27405;53.316;-6.294;2023-02-10T08:22:04;9.20;99.90
41720;DHT22;27405;53.316;-6.294;2023-02-10T08:24:30;9.20;99.90
41720;DHT22;27405;53.316;-6.294;2023-02-10T08:26:56;9.20;99.90
41720;DHT22;27405;53.316;-6.294;2023-02-10T08:29:22;9.20;99.90
41720;DHT22;27405;53.316;-6.294;2023-02-10T08:31:51;9.20;99.90
41720;DHT22;27405;53.316;-6.294;2023-02-10T08:34:19;9.20;99.90
41720;DHT22;27405;53.316;-6.294;2023-02-10T08:36:45;9.10;99.90
41720;DHT22;27405;53.316;-6.294;2023-02-10T08:39:11;9.20;99.90
41720;DHT22;27405;53.316;-6.294;2023-02-10T08:41:37;9.20;99.90
41720;DHT22;27405;53.316;-6.294;2023-02-10T08:44:03;9.20;99.90
41720;DHT22;27405;53.316;-6.294;2023-02-10T08:46:29;9.20;99.90
41720;DHT22;27405;53.316;-6.294;2023-02-10T08:48:55;9.20;99.90
41720;DHT22;27405;53.316;-6.294;2023-02-10T08:51:21;9.30;99.90
41720;DHT22;27405;53.316;-6.294;2023-02-10T08:53:47;9.30;99.90
41720;DHT22;27405;53.316;-6.294;2023-02-10T08:56:17;9.40;99.90
41720;DHT22;27405;53.316;-6.294;2023-02-10T08:58:44;9.40;99.90
41720;DHT22;27405;53.316;-6.294;2023-02-10T09:01:15;9.40;99.90
41720;DHT22;27405;53.316;-6.294;2023-02-10T09:03:42;9.40;99.90
41720;DHT22;27405;53.316;-6.294;2023-02-10T09:06:19;9.50;99.90
41720;DHT22;27405;53.316;-6.294;2023-02-10T09:08:46;9.50;99.90
41720;DHT22;27405;53.316;-6.294;2023-02-10T09:11:13;9.60;99.90
41720;DHT22;27405;53.316;-6.294;2023-02-10T09:13:40;9.60;99.90
41720;DHT22;27405;53.316;-6.294;2023-02-10T09:16:06;9.70;99.90
41720;DHT22;27405;53.316;-6.294;2023-02-10T09:18:31;9.70;99.90
41720;DHT22;27405;53.316;-6.294;2023-02-10T09:20:58;9.70;99.90
41720;DHT22;27405;53.316;-6.294;2023-02-10T09:23:24;9.80;99.90
41720;DHT22;27405;53.316;-6.294;2023-02-10T09:25:57;9.90;99.90
41720;DHT22;27405;53.316;-6.294;2023-02-10T09:28:23;9.90;99.90
41720;DHT22;27405;53.316;-6.294;2023-02-10T09:30:49;10.00;99.90
41720;DHT22;27405;53.316;-6.294;2023-02-10T09:33:16;10.10;99.90
41720;DHT22;27405;53.316;-6.294;2023-02-10T09:35:42;10.10;99.90
41720;DHT22;27405;53.316;-6.294;2023-02-10T09:38:09;10.10;99.90
41720;DHT22;27405;53.316;-6.294;2023-02-10T09:51:51;10.40;99.90
41720;DHT22;27405;53.316;-6.294;2023-02-10T09:54:20;10.40;99.90
41720;DHT22;27405;53.316;-6.294;2023-02-10T09:56:46;10.40;99.90
41720;DHT22;27405;53.316;-6.294;2023-02-10T09:59:19;10.40;99.90
41720;DHT22;27405;53.316;-6.294;2023-02-10T10:01:54;10.40;99.90
41720;DHT22;27405;53.316;-6.294;2023-02-10T10:04:22;10.50;99.90
41720;DHT22;27405;53.316;-6.294;2023-02-10T10:07:03;10.50;99.90
41720;DHT22;27405;53.316;-6.294;2023-02-10T10:09:43;10.60;99.90
41720;DHT22;27405;53.316;-6.294;2023-02-10T10:12:11;10.60;99.90
41720;DHT22;27405;53.316;-6.294;2023-02-10T10:14:40;10.70;99.90
41720;DHT22;27405;53.316;-6.294;2023-02-10T10:20:36;10.80;99.90
41720;DHT22;27405;53.316;-6.294;2023-02-10T10:26:06;10.80;99.90
41720;DHT22;27405;53.316;-6.294;2023-02-10T10:31:18;10.90;99.90
41720;DHT22;27405;53.316;-6.294;2023-02-10T10:34:28;10.90;99.90
41720;DHT22;27405;53.316;-6.294;2023-02-10T10:36:49;10.90;99.90
41720;DHT22;27405;53.316;-6.294;2023-02-10T10:39:59;10.90;99.90
41720;DHT22;27405;53.316;-6.294;2023-02-10T10:42:45;10.90;99.90
41720;DHT22;27405;53.316;-6.294;2023-02-10T10:45:34;10.90;99.90
41720;DHT22;27405;53.316;-6.294;2023-02-10T10:48:07;10.90;99.90
41720;DHT22;27405;53.316;-6.294;2023-02-10T10:50:34;11.00;99.90
41720;DHT22;27405;53.316;-6.294;2023-02-10T10:53:03;11.00;99.90
41720;DHT22;27405;53.316;-6.294;2023-02-10T10:58:03;11.10;99.90
41720;DHT22;27405;53.316;-6.294;2023-02-10T11:00:33;11.10;99.90
41720;DHT22;27405;53.316;-6.294;2023-02-10T11:03:02;11.20;99.90
41720;DHT22;27405;53.316;-6.294;2023-02-10T11:05:35;11.20;99.90
41720;DHT22;27405;53.316;-6.294;2023-02-10T11:08:03;11.30;99.90
41720;DHT22;27405;53.316;-6.294;2023-02-10T11:10:53;11.30;99.90
41720;DHT22;27405;53.316;-6.294;2023-02-10T11:13:21;11.40;99.90
41720;DHT22;27405;53.316;-6.294;2023-02-10T11:15:48;11.40;99.90
41720;DHT22;27405;53.316;-6.294;2023-02-10T11:18:21;11.40;99.90
41720;DHT22;27405;53.316;-6.294;2023-02-10T11:20:57;11.40;99.90
41720;DHT22;27405;53.316;-6.294;2023-02-10T11:23:24;11.40;99.90
41720;DHT22;27405;53.316;-6.294;2023-02-10T11:28:30;11.60;99.90
41720;DHT22;27405;53.316;-6.294;2023-02-10T11:31:04;11.60;99.90
41720;DHT22;27405;53.316;-6.294;2023-02-10T11:33:33;11.60;99.90
41720;DHT22;27405;53.316;-6.294;2023-02-10T11:36:03;11.70;99.90
41720;DHT22;27405;53.316;-6.294;2023-02-10T11:38:29;11.70;99.90
41720;DHT22;27405;53.316;-6.294;2023-02-10T11:41:01;11.70;99.90
41720;DHT22;27405;53.316;-6.294;2023-02-10T11:43:34;11.70;99.90
41720;DHT22;27405;53.316;-6.294;2023-02-10T11:46:02;11.80;99.90
41720;DHT22;27405;53.316;-6.294;2023-02-10T11:48:30;11.80;99.90
41720;DHT22;27405;53.316;-6.294;2023-02-10T11:51:14;11.80;99.90
41720;DHT22;27405;53.316;-6.294;2023-02-10T11:53:41;11.80;99.90
41720;DHT22;27405;53.316;-6.294;2023-02-10T11:56:20;11.90;99.90
41720;DHT22;27405;53.316;-6.294;2023-02-10T12:05:13;11.90;99.90
41720;DHT22;27405;53.316;-6.294;2023-02-10T12:10:46;11.90;99.90
41720;DHT22;27405;53.316;-6.294;2023-02-10T12:16:12;11.90;99.90
41720;DHT22;27405;53.316;-6.294;2023-02-10T12:18:45;11.90;99.90
41720;DHT22;27405;53.316;-6.294;2023-02-10T12:29:43;12.10;99.90
41720;DHT22;27405;53.316;-6.294;2023-02-10T12:40:52;12.30;99.90
41720;DHT22;27405;53.316;-6.294;2023-02-10T12:46:14;12.30;99.90
41720;DHT22;27405;53.316;-6.294;2023-02-10T12:48:51;12.30;99.90
41720;DHT22;27405;53.316;-6.294;2023-02-10T12:57:03;12.30;99.90
41720;DHT22;27405;53.316;-6.294;2023-02-10T12:59:46;12.30;99.90
41720;DHT22;27405;53.316;-6.294;2023-02-10T13:02:17;12.30;99.90
41720;DHT22;27405;53.316;-6.294;2023-02-10T13:04:50;12.30;99.90
41720;DHT22;27405;53.316;-6.294;2023-02-10T13:07:45;12.30;99.90
41720;DHT22;27405;53.316;-6.294;2023-02-10T13:12:47;12.30;99.90
41720;DHT22;27405;53.316;-6.294;2023-02-10T13:15:23;12.30;99.90
41720;DHT22;27405;53.316;-6.294;2023-02-10T13:17:51;12.30;99.90
41720;DHT22;27405;53.316;-6.294;2023-02-10T13:34:19;12.40;99.90
41720;DHT22;27405;53.316;-6.294;2023-02-10T13:36:51;12.50;99.90
41720;DHT22;27405;53.316;-6.294;2023-02-10T13:39:24;12.50;99.90
41720;DHT22;27405;53.316;-6.294;2023-02-10T13:42:07;12.50;99.90
41720;DHT22;27405;53.316;-6.294;2023-02-10T13:44:36;12.60;99.90
41720;DHT22;27405;53.316;-6.294;2023-02-10T13:49:52;12.70;99.90
41720;DHT22;27405;53.316;-6.294;2023-02-10T13:52:25;12.70;99.90
41720;DHT22;27405;53.316;-6.294;2023-02-10T13:54:58;12.70;99.90
41720;DHT22;27405;53.316;-6.294;2023-02-10T13:57:33;12.80;99.90
41720;DHT22;27405;53.316;-6.294;2023-02-10T14:00:19;12.80;99.90
41720;DHT22;27405;53.316;-6.294;2023-02-10T14:05:38;12.90;99.90
41720;DHT22;27405;53.316;-6.294;2023-02-10T14:08:26;12.90;99.90
41720;DHT22;27405;53.316;-6.294;2023-02-10T14:10:58;12.90;99.90
41720;DHT22;27405;53.316;-6.294;2023-02-10T14:13:27;12.90;99.90
41720;DHT22;27405;53.316;-6.294;2023-02-10T14:16:06;12.90;99.90
41720;DHT22;27405;53.316;-6.294;2023-02-10T14:18:36;12.90;99.90
41720;DHT22;27405;53.316;-6.294;2023-02-10T14:21:09;12.90;99.90
41720;DHT22;27405;53.316;-6.294;2023-02-10T14:23:37;12.90;99.90
41720;DHT22;27405;53.316;-6.294;2023-02-10T14:26:15;13.00;99.90
41720;DHT22;27405;53.316;-6.294;2023-02-10T14:28:42;13.00;99.90
41720;DHT22;27405;53.316;-6.294;2023-02-10T14:31:18;13.00;99.90
41720;DHT22;27405;53.316;-6.294;2023-02-10T14:33:58;13.00;99.90
41720;DHT22;27405;53.316;-6.294;2023-02-10T14:36:24;12.90;99.90
41720;DHT22;27405;53.316;-6.294;2023-02-10T14:38:52;12.90;99.90
41720;DHT22;27405;53.316;-6.294;2023-02-10T14:41:19;12.90;99.90
41720;DHT22;27405;53.316;-6.294;2023-02-10T14:43:45;13.00;99.90
41720;DHT22;27405;53.316;-6.294;2023-02-10T14:46:21;12.90;99.90
41720;DHT22;27405;53.316;-6.294;2023-02-10T14:48:47;12.90;99.90
41720;DHT22;27405;53.316;-6.294;2023-02-10T14:51:24;12.90;99.90
41720;DHT22;27405;53.316;-6.294;2023-02-10T14:53:50;12.90;99.90
41720;DHT22;27405;53.316;-6.294;2023-02-10T14:56:23;12.80;99.90
41720;DHT22;27405;53.316;-6.294;2023-02-10T14:58:49;12.90;99.90
41720;DHT22;27405;53.316;-6.294;2023-02-10T15:01:25;12.80;99.90
41720;DHT22;27405;53.316;-6.294;2023-02-10T15:03:51;12.90;99.90
41720;DHT22;27405;53.316;-6.294;2023-02-10T15:06:19;12.90;99.90
41720;DHT22;27405;53.316;-6.294;2023-02-10T15:08:52;12.90;99.90
41720;DHT22;27405;53.316;-6.294;2023-02-10T15:11:23;12.90;99.90
41720;DHT22;27405;53.316;-6.294;2023-02-10T15:14:20;12.90;99.90
41720;DHT22;27405;53.316;-6.294;2023-02-10T15:16:48;12.90;99.90
41720;DHT22;27405;53.316;-6.294;2023-02-10T15:19:16;12.90;99.90
41720;DHT22;27405;53.316;-6.294;2023-02-10T15:21:43;12.90;99.90
41720;DHT22;27405;53.316;-6.294;2023-02-10T15:24:24;12.90;99.90
41720;DHT22;27405;53.316;-6.294;2023-02-10T15:26:50;12.90;99.90
41720;DHT22;27405;53.316;-6.294;2023-02-10T15:29:16;12.90;99.90
41720;DHT22;27405;53.316;-6.294;2023-02-10T15:31:51;12.90;99.90
41720;DHT22;27405;53.316;-6.294;2023-02-10T15:34:20;12.90;99.90
41720;DHT22;27405;53.316;-6.294;2023-02-10T15:36:48;12.90;99.90
41720;DHT22;27405;53.316;-6.294;2023-02-10T15:39:25;12.90;99.90
41720;DHT22;27405;53.316;-6.294;2023-02-10T15:46:48;12.80;99.90
41720;DHT22;27405;53.316;-6.294;2023-02-10T15:49:16;12.80;99.90
41720;DHT22;27405;53.316;-6.294;2023-02-10T15:51:49;12.80;99.90
41720;DHT22;27405;53.316;-6.294;2023-02-10T15:54:18;12.70;99.90
41720;DHT22;27405;53.316;-6.294;2023-02-10T15:56:59;12.70;99.90
41720;DHT22;27405;53.316;-6.294;2023-02-10T15:59:26;12.70;99.90
41720;DHT22;27405;53.316;-6.294;2023-02-10T16:01:56;12.60;99.90
41720;DHT22;27405;53.316;-6.294;2023-02-10T16:04:23;12.60;99.90
41720;DHT22;27405;53.316;-6.294;2023-02-10T16:06:49;12.60;99.90
41720;DHT22;27405;53.316;-6.294;2023-02-10T16:09:14;12.50;99.90
41720;DHT22;27405;53.316;-6.294;2023-02-10T16:11:40;12.50;99.90
41720;DHT22;27405;53.316;-6.294;2023-02-10T16:14:06;12.50;99.90
41720;DHT22;27405;53.316;-6.294;2023-02-10T16:16:31;12.40;99.90
41720;DHT22;27405;53.316;-6.294;2023-02-10T16:18:57;12.40;99.90
41720;DHT22;27405;53.316;-6.294;2023-02-10T16:21:23;12.40;99.90
41720;DHT22;27405;53.316;-6.294;2023-02-10T16:23:49;12.40;99.90
41720;DHT22;27405;53.316;-6.294;2023-02-10T16:26:21;12.30;99.90
41720;DHT22;27405;53.316;-6.294;2023-02-10T16:28:48;12.30;99.90
41720;DHT22;27405;53.316;-6.294;2023-02-10T16:31:14;12.30;99.90
41720;DHT22;27405;53.316;-6.294;2023-02-10T16:33:40;12.30;99.90
41720;DHT22;27405;53.316;-6.294;2023-02-10T16:36:10;12.30;99.90
41720;DHT22;27405;53.316;-6.294;2023-02-10T16:38:35;12.30;99.90
41720;DHT22;27405;53.316;-6.294;2023-02-10T16:41:01;12.30;99.90
41720;DHT22;27405;53.316;-6.294;2023-02-10T16:43:27;12.20;99.90
41720;DHT22;27405;53.316;-6.294;2023-02-10T16:45:53;12.20;99.90
41720;DHT22;27405;53.316;-6.294;2023-02-10T16:48:18;12.30;99.90
41720;DHT22;27405;53.316;-6.294;2023-02-10T16:50:44;12.20;99.90
41720;DHT22;27405;53.316;-6.294;2023-02-10T16:53:11;12.20;99.90
41720;DHT22;27405;53.316;-6.294;2023-02-10T16:55:39;12.20;99.90
41720;DHT22;27405;53.316;-6.294;2023-02-10T16:58:05;12.20;99.90
41720;DHT22;27405;53.316;-6.294;2023-02-10T17:00:31;12.20;99.90
41720;DHT22;27405;53.316;-6.294;2023-02-10T17:02:58;12.20;99.90
41720;DHT22;27405;53.316;-6.294;2023-02-10T17:05:24;12.20;99.90
41720;DHT22;27405;53.316;-6.294;2023-02-10T17:07:50;12.20;99.90
41720;DHT22;27405;53.316;-6.294;2023-02-10T17:10:25;12.20;99.90
41720;DHT22;27405;53.316;-6.294;2023-02-10T17:12:51;12.10;99.90
41720;DHT22;27405;53.316;-6.294;2023-02-10T17:15:18;12.00;99.90
41720;DHT22;27405;53.316;-6.294;2023-02-10T17:17:44;12.00;99.90
41720;DHT22;27405;53.316;-6.294;2023-02-10T17:20:32;12.00;99.90
41720;DHT22;27405;53.316;-6.294;2023-02-10T17:22:59;11.90;99.90
41720;DHT22;27405;53.316;-6.294;2023-02-10T17:25:27;11.80;99.90